sensor_id;sensor_type;location;lat;lon;timestamp;P1;durP1;ratioP1;P2;durP2;ratioP2
11539;SDS011;5826;54.756;9.192;2023-07-31T00:00:04;2.63;;;1.10;;
11539;SDS011;5826;54.756;9.192;2023-07-31T00:02:30;2.67;;;1.05;;
11539;SDS011;5826;54.756;9.192;2023-07-31T00:04:56;2.25;;;0.90;;
11539;SDS011;5826;54.756;9.192;2023-07-31T00:07:21;3.72;;;1.05;;
11539;SDS011;5826;54.756;9.192;2023-07-31T00:09:47;2.92;;;1.23;;
11539;SDS011;5826;54.756;9.192;2023-07-31T00:12:12;2.83;;;1.27;;
11539;SDS011;5826;54.756;9.192;2023-07-31T00:14:38;3.80;;;1.30;;
11539;SDS011;5826;54.756;9.192;2023-07-31T00:17:03;3.25;;;1.30;;
11539;SDS011;5826;54.756;9.192;2023-07-31T00:19:29;5.45;;;1.70;;
11539;SDS011;5826;54.756;9.192;2023-07-31T00:21:55;3.92;;;1.30;;
11539;SDS011;5826;54.756;9.192;2023-07-31T00:24:20;4.95;;;1.58;;
11539;SDS011;5826;54.756;9.192;2023-07-31T00:26:46;5.32;;;1.50;;
11539;SDS011;5826;54.756;9.192;2023-07-31T00:29:11;4.20;;;1.50;;
11539;SDS011;5826;54.756;9.192;2023-07-31T00:31:37;4.70;;;1.50;;
11539;SDS011;5826;54.756;9.192;2023-07-31T00:34:02;5.07;;;1.40;;
11539;SDS011;5826;54.756;9.192;2023-07-31T00:36:28;4.47;;;1.63;;
11539;SDS011;5826;54.756;9.192;2023-07-31T00:38:53;3.92;;;1.35;;
11539;SDS011;5826;54.756;9.192;2023-07-31T00:41:18;3.50;;;1.42;;
11539;SDS011;5826;54.756;9.192;2023-07-31T00:43:44;4.88;;;1.45;;
11539;SDS011;5826;54.756;9.192;2023-07-31T00:46:09;3.83;;;1.15;;
11539;SDS011;5826;54.756;9.192;2023-07-31T00:48:35;4.35;;;1.27;;
11539;SDS011;5826;54.756;9.192;2023-07-31T00:51:02;2.97;;;1.25;;
11539;SDS011;5826;54.756;9.192;2023-07-31T00:53:28;4.78;;;1.30;;
11539;SDS011;5826;54.756;9.192;2023-07-31T00:55:53;3.97;;;1.30;;
11539;SDS011;5826;54.756;9.192;2023-07-31T00:58:19;2.63;;;1.40;;
11539;SDS011;5826;54.756;9.192;2023-07-31T01:00:44;2.95;;;1.30;;
11539;SDS011;5826;54.756;9.192;2023-07-31T01:03:10;4.32;;;1.45;;
11539;SDS011;5826;54.756;9.192;2023-07-31T01:05:39;3.55;;;1.20;;
11539;SDS011;5826;54.756;9.192;2023-07-31T01:11:02;4.78;;;1.30;;
11539;SDS011;5826;54.756;9.192;2023-07-31T01:13:35;2.10;;;1.08;;
11539;SDS011;5826;54.756;9.192;2023-07-31T01:16:01;2.38;;;1.08;;
11539;SDS011;5826;54.756;9.192;2023-07-31T01:18:26;3.35;;;1.20;;
11539;SDS011;5826;54.756;9.192;2023-07-31T01:20:57;4.40;;;1.85;;
11539;SDS011;5826;54.756;9.192;2023-07-31T01:28:34;4.00;;;1.40;;
11539;SDS011;5826;54.756;9.192;2023-07-31T01:31:11;3.85;;;1.50;;
11539;SDS011;5826;54.756;9.192;2023-07-31T01:33:42;3.80;;;1.25;;
11539;SDS011;5826;54.756;9.192;2023-07-31T01:36:08;3.22;;;1.58;;
11539;SDS011;5826;54.756;9.192;2023-07-31T01:38:34;3.40;;;1.40;;
11539;SDS011;5826;54.756;9.192;2023-07-31T01:41:00;4.00;;;1.20;;
11539;SDS011;5826;54.756;9.192;2023-07-31T01:43:25;2.83;;;1.50;;
11539;SDS011;5826;54.756;9.192;2023-07-31T01:45:51;3.55;;;1.40;;
11539;SDS011;5826;54.756;9.192;2023-07-31T01:48:16;4.93;;;1.45;;
11539;SDS011;5826;54.756;9.192;2023-07-31T01:50:42;3.20;;;1.52;;
11539;SDS011;5826;54.756;9.192;2023-07-31T01:53:07;3.03;;;1.50;;
11539;SDS011;5826;54.756;9.192;2023-07-31T01:55:33;4.28;;;1.50;;
11539;SDS011;5826;54.756;9.192;2023-07-31T01:57:58;3.35;;;1.23;;
11539;SDS011;5826;54.756;9.192;2023-07-31T02:00:24;2.78;;;1.27;;
11539;SDS011;5826;54.756;9.192;2023-07-31T02:02:49;3.35;;;1.55;;
11539;SDS011;5826;54.756;9.192;2023-07-31T02:05:15;7.70;;;1.90;;
11539;SDS011;5826;54.756;9.192;2023-07-31T02:07:40;3.65;;;1.40;;
11539;SDS011;5826;54.756;9.192;2023-07-31T02:10:06;3.20;;;1.65;;
11539;SDS011;5826;54.756;9.192;2023-07-31T02:12:31;4.10;;;1.75;;
11539;SDS011;5826;54.756;9.192;2023-07-31T02:14:58;5.63;;;1.75;;
11539;SDS011;5826;54.756;9.192;2023-07-31T02:17:24;3.45;;;1.80;;
11539;SDS011;5826;54.756;9.192;2023-07-31T02:19:49;4.35;;;1.77;;
11539;SDS011;5826;54.756;9.192;2023-07-31T02:22:15;8.63;;;2.33;;
11539;SDS011;5826;54.756;9.192;2023-07-31T02:24:40;7.00;;;2.30;;
11539;SDS011;5826;54.756;9.192;2023-07-31T02:27:06;6.00;;;2.03;;
11539;SDS011;5826;54.756;9.192;2023-07-31T02:29:31;4.15;;;1.80;;
11539;SDS011;5826;54.756;9.192;2023-07-31T02:31:57;8.18;;;2.10;;
11539;SDS011;5826;54.756;9.192;2023-07-31T02:34:22;5.43;;;1.88;;
11539;SDS011;5826;54.756;9.192;2023-07-31T02:36:48;8.15;;;1.90;;
11539;SDS011;5826;54.756;9.192;2023-07-31T02:39:13;6.55;;;2.42;;
11539;SDS011;5826;54.756;9.192;2023-07-31T02:41:39;5.90;;;2.05;;
11539;SDS011;5826;54.756;9.192;2023-07-31T02:44:04;3.97;;;1.80;;
11539;SDS011;5826;54.756;9.192;2023-07-31T02:46:29;4.57;;;1.95;;
11539;SDS011;5826;54.756;9.192;2023-07-31T02:48:55;4.00;;;1.75;;
11539;SDS011;5826;54.756;9.192;2023-07-31T02:51:20;3.92;;;1.80;;
11539;SDS011;5826;54.756;9.192;2023-07-31T02:53:46;7.03;;;2.40;;
11539;SDS011;5826;54.756;9.192;2023-07-31T02:56:12;5.32;;;2.17;;
11539;SDS011;5826;54.756;9.192;2023-07-31T02:58:38;4.28;;;1.80;;
11539;SDS011;5826;54.756;9.192;2023-07-31T03:01:03;3.42;;;1.80;;
11539;SDS011;5826;54.756;9.192;2023-07-31T03:03:29;6.55;;;2.10;;
11539;SDS011;5826;54.756;9.192;2023-07-31T03:05:55;4.13;;;1.90;;
11539;SDS011;5826;54.756;9.192;2023-07-31T03:08:20;4.85;;;2.20;;
11539;SDS011;5826;54.756;9.192;2023-07-31T03:10:46;4.10;;;1.70;;
11539;SDS011;5826;54.756;9.192;2023-07-31T03:13:11;4.28;;;1.98;;
11539;SDS011;5826;54.756;9.192;2023-07-31T03:15:37;3.33;;;1.70;;
11539;SDS011;5826;54.756;9.192;2023-07-31T03:18:02;4.25;;;1.92;;
11539;SDS011;5826;54.756;9.192;2023-07-31T03:20:28;5.13;;;1.75;;
11539;SDS011;5826;54.756;9.192;2023-07-31T03:22:53;3.55;;;1.42;;
11539;SDS011;5826;54.756;9.192;2023-07-31T03:25:19;3.80;;;1.67;;
11539;SDS011;5826;54.756;9.192;2023-07-31T03:27:44;3.15;;;1.52;;
11539;SDS011;5826;54.756;9.192;2023-07-31T03:30:10;4.43;;;1.88;;
11539;SDS011;5826;54.756;9.192;2023-07-31T03:32:35;4.18;;;2.10;;
11539;SDS011;5826;54.756;9.192;2023-07-31T03:35:01;3.72;;;1.90;;
11539;SDS011;5826;54.756;9.192;2023-07-31T03:37:26;6.95;;;2.08;;
11539;SDS011;5826;54.756;9.192;2023-07-31T03:39:52;7.38;;;2.40;;
11539;SDS011;5826;54.756;9.192;2023-07-31T03:42:17;4.22;;;2.22;;
11539;SDS011;5826;54.756;9.192;2023-07-31T03:44:43;6.13;;;1.83;;
11539;SDS011;5826;54.756;9.192;2023-07-31T03:47:08;5.82;;;2.30;;
11539;SDS011;5826;54.756;9.192;2023-07-31T03:49:34;7.68;;;2.42;;
11539;SDS011;5826;54.756;9.192;2023-07-31T03:51:59;3.88;;;1.95;;
11539;SDS011;5826;54.756;9.192;2023-07-31T03:54:25;5.30;;;1.90;;
11539;SDS011;5826;54.756;9.192;2023-07-31T03:56:50;6.50;;;2.17;;
11539;SDS011;5826;54.756;9.192;2023-07-31T03:59:16;3.63;;;1.67;;
11539;SDS011;5826;54.756;9.192;2023-07-31T04:01:41;4.70;;;1.70;;
11539;SDS011;5826;54.756;9.192;2023-07-31T04:04:07;5.10;;;1.75;;
11539;SDS011;5826;54.756;9.192;2023-07-31T04:06:32;4.18;;;1.88;;
11539;SDS011;5826;54.756;9.192;2023-07-31T04:08:58;5.57;;;1.77;;
11539;SDS011;5826;54.756;9.192;2023-07-31T04:11:23;5.10;;;1.77;;
11539;SDS011;5826;54.756;9.192;2023-07-31T04:13:49;3.63;;;1.75;;
11539;SDS011;5826;54.756;9.192;2023-07-31T04:16:14;2.42;;;1.50;;
11539;SDS011;5826;54.756;9.192;2023-07-31T04:18:40;7.60;;;2.60;;
11539;SDS011;5826;54.756;9.192;2023-07-31T04:21:05;4.75;;;2.00;;
11539;SDS011;5826;54.756;9.192;2023-07-31T04:23:30;3.67;;;2.10;;
11539;SDS011;5826;54.756;9.192;2023-07-31T04:25:56;4.20;;;2.08;;
11539;SDS011;5826;54.756;9.192;2023-07-31T04:28:21;2.63;;;1.70;;
11539;SDS011;5826;54.756;9.192;2023-07-31T04:30:47;6.15;;;2.30;;
11539;SDS011;5826;54.756;9.192;2023-07-31T04:33:13;5.07;;;1.95;;
11539;SDS011;5826;54.756;9.192;2023-07-31T04:35:38;5.80;;;2.53;;
11539;SDS011;5826;54.756;9.192;2023-07-31T04:38:04;3.97;;;2.00;;
11539;SDS011;5826;54.756;9.192;2023-07-31T04:40:29;3.20;;;1.63;;
11539;SDS011;5826;54.756;9.192;2023-07-31T04:42:55;3.85;;;1.85;;
11539;SDS011;5826;54.756;9.192;2023-07-31T04:45:20;3.70;;;1.80;;
11539;SDS011;5826;54.756;9.192;2023-07-31T04:47:46;3.42;;;1.60;;
11539;SDS011;5826;54.756;9.192;2023-07-31T04:50:11;3.78;;;1.75;;
11539;SDS011;5826;54.756;9.192;2023-07-31T04:52:37;2.70;;;1.40;;
11539;SDS011;5826;54.756;9.192;2023-07-31T04:55:02;3.17;;;1.40;;
11539;SDS011;5826;54.756;9.192;2023-07-31T04:57:28;2.15;;;1.38;;
11539;SDS011;5826;54.756;9.192;2023-07-31T04:59:54;2.33;;;1.42;;
11539;SDS011;5826;54.756;9.192;2023-07-31T05:02:19;5.82;;;2.00;;
11539;SDS011;5826;54.756;9.192;2023-07-31T05:04:44;4.40;;;1.80;;
11539;SDS011;5826;54.756;9.192;2023-07-31T05:07:10;3.90;;;1.80;;
11539;SDS011;5826;54.756;9.192;2023-07-31T05:09:36;2.55;;;1.95;;
11539;SDS011;5826;54.756;9.192;2023-07-31T05:12:01;2.78;;;1.60;;
11539;SDS011;5826;54.756;9.192;2023-07-31T05:14:29;5.10;;;2.38;;
11539;SDS011;5826;54.756;9.192;2023-07-31T05:16:54;2.88;;;1.60;;
11539;SDS011;5826;54.756;9.192;2023-07-31T05:19:20;2.97;;;1.67;;
11539;SDS011;5826;54.756;9.192;2023-07-31T05:21:45;3.17;;;1.70;;
11539;SDS011;5826;54.756;9.192;2023-07-31T05:24:11;4.75;;;1.85;;
11539;SDS011;5826;54.756;9.192;2023-07-31T05:26:36;4.45;;;1.75;;
11539;SDS011;5826;54.756;9.192;2023-07-31T05:29:02;3.03;;;1.70;;
11539;SDS011;5826;54.756;9.192;2023-07-31T05:31:28;3.55;;;1.70;;
11539;SDS011;5826;54.756;9.192;2023-07-31T05:33:54;2.50;;;1.42;;
11539;SDS011;5826;54.756;9.192;2023-07-31T05:36:19;3.15;;;1.70;;
11539;SDS011;5826;54.756;9.192;2023-07-31T05:38:45;4.55;;;2.28;;
11539;SDS011;5826;54.756;9.192;2023-07-31T05:41:11;3.60;;;1.65;;
11539;SDS011;5826;54.756;9.192;2023-07-31T05:43:37;3.78;;;1.83;;
11539;SDS011;5826;54.756;9.192;2023-07-31T05:46:03;2.85;;;2.00;;
11539;SDS011;5826;54.756;9.192;2023-07-31T05:48:28;5.75;;;2.03;;
11539;SDS011;5826;54.756;9.192;2023-07-31T05:50:54;5.00;;;2.22;;
11539;SDS011;5826;54.756;9.192;2023-07-31T05:53:19;8.68;;;2.33;;
11539;SDS011;5826;54.756;9.192;2023-07-31T05:55:45;4.70;;;2.50;;
11539;SDS011;5826;54.756;9.192;2023-07-31T05:58:10;3.33;;;2.00;;
11539;SDS011;5826;54.756;9.192;2023-07-31T06:00:36;3.70;;;1.83;;
11539;SDS011;5826;54.756;9.192;2023-07-31T06:03:01;3.92;;;2.03;;
11539;SDS011;5826;54.756;9.192;2023-07-31T06:05:27;4.38;;;2.08;;
11539;SDS011;5826;54.756;9.192;2023-07-31T06:07:54;4.43;;;1.90;;
11539;SDS011;5826;54.756;9.192;2023-07-31T06:10:20;5.70;;;2.58;;
11539;SDS011;5826;54.756;9.192;2023-07-31T06:12:45;4.30;;;2.20;;
11539;SDS011;5826;54.756;9.192;2023-07-31T06:15:11;6.60;;;3.03;;
11539;SDS011;5826;54.756;9.192;2023-07-31T06:17:37;5.80;;;2.63;;
11539;SDS011;5826;54.756;9.192;2023-07-31T06:20:02;4.28;;;2.22;;
11539;SDS011;5826;54.756;9.192;2023-07-31T06:22:30;7.97;;;2.60;;
11539;SDS011;5826;54.756;9.192;2023-07-31T06:24:56;3.85;;;1.98;;
11539;SDS011;5826;54.756;9.192;2023-07-31T06:27:21;4.70;;;2.22;;
11539;SDS011;5826;54.756;9.192;2023-07-31T06:29:47;4.38;;;2.17;;
11539;SDS011;5826;54.756;9.192;2023-07-31T06:32:13;2.88;;;1.70;;
11539;SDS011;5826;54.756;9.192;2023-07-31T06:34:38;5.00;;;2.00;;
11539;SDS011;5826;54.756;9.192;2023-07-31T06:37:04;5.72;;;2.55;;
11539;SDS011;5826;54.756;9.192;2023-07-31T06:39:30;4.72;;;2.30;;
11539;SDS011;5826;54.756;9.192;2023-07-31T06:41:55;3.20;;;1.83;;
11539;SDS011;5826;54.756;9.192;2023-07-31T06:44:21;5.30;;;2.22;;
11539;SDS011;5826;54.756;9.192;2023-07-31T06:46:46;6.43;;;2.17;;
11539;SDS011;5826;54.756;9.192;2023-07-31T06:49:11;8.50;;;2.72;;
11539;SDS011;5826;54.756;9.192;2023-07-31T06:51:37;5.85;;;2.45;;
11539;SDS011;5826;54.756;9.192;2023-07-31T06:54:03;7.60;;;2.30;;
11539;SDS011;5826;54.756;9.192;2023-07-31T06:56:29;6.88;;;2.40;;
11539;SDS011;5826;54.756;9.192;2023-07-31T06:58:55;4.30;;;1.88;;
11539;SDS011;5826;54.756;9.192;2023-07-31T07:01:21;4.80;;;2.30;;
11539;SDS011;5826;54.756;9.192;2023-07-31T07:03:46;5.95;;;2.20;;
11539;SDS011;5826;54.756;9.192;2023-07-31T07:06:12;6.85;;;2.10;;
11539;SDS011;5826;54.756;9.192;2023-07-31T07:08:37;6.75;;;2.40;;
11539;SDS011;5826;54.756;9.192;2023-07-31T07:11:03;5.90;;;2.20;;
11539;SDS011;5826;54.756;9.192;2023-07-31T07:13:28;5.60;;;2.00;;
11539;SDS011;5826;54.756;9.192;2023-07-31T07:15:54;5.07;;;2.10;;
11539;SDS011;5826;54.756;9.192;2023-07-31T07:18:19;5.78;;;1.90;;
11539;SDS011;5826;54.756;9.192;2023-07-31T07:20:46;4.03;;;1.80;;
11539;SDS011;5826;54.756;9.192;2023-07-31T07:23:14;9.00;;;2.03;;
11539;SDS011;5826;54.756;9.192;2023-07-31T07:25:39;2.92;;;1.75;;
11539;SDS011;5826;54.756;9.192;2023-07-31T07:28:05;4.38;;;1.75;;
11539;SDS011;5826;54.756;9.192;2023-07-31T07:30:31;4.18;;;1.60;;
11539;SDS011;5826;54.756;9.192;2023-07-31T07:32:56;4.68;;;1.50;;
11539;SDS011;5826;54.756;9.192;2023-07-31T07:35:22;3.60;;;1.40;;
11539;SDS011;5826;54.756;9.192;2023-07-31T07:37:50;3.47;;;1.48;;
11539;SDS011;5826;54.756;9.192;2023-07-31T07:40:16;2.75;;;1.42;;
11539;SDS011;5826;54.756;9.192;2023-07-31T07:42:41;4.43;;;1.90;;
11539;SDS011;5826;54.756;9.192;2023-07-31T07:45:07;3.17;;;1.40;;
11539;SDS011;5826;54.756;9.192;2023-07-31T07:47:33;5.68;;;1.85;;
11539;SDS011;5826;54.756;9.192;2023-07-31T07:49:59;2.30;;;1.40;;
11539;SDS011;5826;54.756;9.192;2023-07-31T07:52:24;2.63;;;1.50;;
11539;SDS011;5826;54.756;9.192;2023-07-31T07:54:50;3.88;;;1.90;;
11539;SDS011;5826;54.756;9.192;2023-07-31T07:57:15;3.22;;;1.35;;
11539;SDS011;5826;54.756;9.192;2023-07-31T07:59:41;2.97;;;1.52;;
11539;SDS011;5826;54.756;9.192;2023-07-31T08:02:07;5.03;;;1.90;;
11539;SDS011;5826;54.756;9.192;2023-07-31T08:04:32;5.78;;;2.00;;
11539;SDS011;5826;54.756;9.192;2023-07-31T08:06:58;4.93;;;1.90;;
11539;SDS011;5826;54.756;9.192;2023-07-31T08:09:23;3.80;;;1.70;;
11539;SDS011;5826;54.756;9.192;2023-07-31T08:11:49;5.65;;;1.90;;
11539;SDS011;5826;54.756;9.192;2023-07-31T08:14:14;4.85;;;1.67;;
11539;SDS011;5826;54.756;9.192;2023-07-31T08:16:40;2.78;;;1.20;;
11539;SDS011;5826;54.756;9.192;2023-07-31T08:19:05;5.68;;;1.90;;
11539;SDS011;5826;54.756;9.192;2023-07-31T08:21:31;2.83;;;1.55;;
11539;SDS011;5826;54.756;9.192;2023-07-31T08:23:57;5.13;;;1.70;;
11539;SDS011;5826;54.756;9.192;2023-07-31T08:26:22;2.33;;;1.40;;
11539;SDS011;5826;54.756;9.192;2023-07-31T08:28:48;5.38;;;1.60;;
11539;SDS011;5826;54.756;9.192;2023-07-31T08:31:13;2.83;;;1.30;;
11539;SDS011;5826;54.756;9.192;2023-07-31T08:33:39;3.20;;;1.48;;
11539;SDS011;5826;54.756;9.192;2023-07-31T08:36:05;3.72;;;1.20;;
11539;SDS011;5826;54.756;9.192;2023-07-31T08:38:31;2.58;;;1.40;;
11539;SDS011;5826;54.756;9.192;2023-07-31T08:40:57;6.72;;;1.90;;
11539;SDS011;5826;54.756;9.192;2023-07-31T08:43:25;6.13;;;1.92;;
11539;SDS011;5826;54.756;9.192;2023-07-31T08:45:51;3.95;;;1.52;;
11539;SDS011;5826;54.756;9.192;2023-07-31T08:48:17;2.72;;;1.35;;
11539;SDS011;5826;54.756;9.192;2023-07-31T08:50:44;3.08;;;1.63;;
11539;SDS011;5826;54.756;9.192;2023-07-31T08:53:10;4.72;;;1.83;;
11539;SDS011;5826;54.756;9.192;2023-07-31T08:55:36;4.45;;;1.52;;
11539;SDS011;5826;54.756;9.192;2023-07-31T08:58:03;3.28;;;1.15;;
11539;SDS011;5826;54.756;9.192;2023-07-31T09:00:30;3.17;;;1.50;;
11539;SDS011;5826;54.756;9.192;2023-07-31T09:02:58;5.40;;;1.52;;
11539;SDS011;5826;54.756;9.192;2023-07-31T09:05:28;4.43;;;1.48;;
11539;SDS011;5826;54.756;9.192;2023-07-31T09:07:55;3.92;;;1.60;;
11539;SDS011;5826;54.756;9.192;2023-07-31T09:10:22;6.78;;;1.80;;
11539;SDS011;5826;54.756;9.192;2023-07-31T09:12:48;5.80;;;1.55;;
11539;SDS011;5826;54.756;9.192;2023-07-31T09:15:16;3.65;;;1.52;;
11539;SDS011;5826;54.756;9.192;2023-07-31T09:17:42;6.35;;;1.65;;
11539;SDS011;5826;54.756;9.192;2023-07-31T09:20:14;4.22;;;1.50;;
11539;SDS011;5826;54.756;9.192;2023-07-31T09:22:41;4.75;;;1.60;;
11539;SDS011;5826;54.756;9.192;2023-07-31T09:25:17;4.25;;;1.90;;
11539;SDS011;5826;54.756;9.192;2023-07-31T09:27:50;4.28;;;1.70;;
11539;SDS011;5826;54.756;9.192;2023-07-31T09:30:18;5.18;;;1.75;;
11539;SDS011;5826;54.756;9.192;2023-07-31T09:32:45;5.60;;;1.85;;
11539;SDS011;5826;54.756;9.192;2023-07-31T09:35:18;5.10;;;1.65;;
11539;SDS011;5826;54.756;9.192;2023-07-31T09:37:47;5.45;;;1.90;;
11539;SDS011;5826;54.756;9.192;2023-07-31T09:40:24;4.45;;;1.67;;
11539;SDS011;5826;54.756;9.192;2023-07-31T09:42:51;3.38;;;1.48;;
11539;SDS011;5826;54.756;9.192;2023-07-31T09:45:16;7.72;;;2.47;;
11539;SDS011;5826;54.756;9.192;2023-07-31T09:47:47;5.35;;;2.00;;
11539;SDS011;5826;54.756;9.192;2023-07-31T09:50:16;5.40;;;1.60;;
11539;SDS011;5826;54.756;9.192;2023-07-31T09:52:42;3.92;;;1.65;;
11539;SDS011;5826;54.756;9.192;2023-07-31T09:55:08;5.57;;;2.13;;
11539;SDS011;5826;54.756;9.192;2023-07-31T09:57:36;5.65;;;2.15;;
11539;SDS011;5826;54.756;9.192;2023-07-31T10:00:06;4.05;;;1.60;;
11539;SDS011;5826;54.756;9.192;2023-07-31T10:02:34;5.40;;;1.90;;
11539;SDS011;5826;54.756;9.192;2023-07-31T10:05:02;4.78;;;1.63;;
11539;SDS011;5826;54.756;9.192;2023-07-31T10:07:28;3.47;;;1.83;;
11539;SDS011;5826;54.756;9.192;2023-07-31T10:09:56;3.22;;;1.52;;
11539;SDS011;5826;54.756;9.192;2023-07-31T10:12:25;4.13;;;1.50;;
11539;SDS011;5826;54.756;9.192;2023-07-31T10:14:53;6.20;;;1.77;;
11539;SDS011;5826;54.756;9.192;2023-07-31T10:17:19;6.53;;;2.03;;
11539;SDS011;5826;54.756;9.192;2023-07-31T10:19:48;6.03;;;2.00;;
11539;SDS011;5826;54.756;9.192;2023-07-31T10:22:19;5.65;;;1.95;;
11539;SDS011;5826;54.756;9.192;2023-07-31T10:24:45;5.30;;;1.70;;
11539;SDS011;5826;54.756;9.192;2023-07-31T10:27:11;4.13;;;1.63;;
11539;SDS011;5826;54.756;9.192;2023-07-31T10:29:41;4.93;;;1.65;;
11539;SDS011;5826;54.756;9.192;2023-07-31T10:32:08;5.72;;;2.03;;
11539;SDS011;5826;54.756;9.192;2023-07-31T10:34:36;3.85;;;1.95;;
11539;SDS011;5826;54.756;9.192;2023-07-31T10:37:19;4.35;;;1.60;;
11539;SDS011;5826;54.756;9.192;2023-07-31T10:39:46;2.78;;;1.50;;
11539;SDS011;5826;54.756;9.192;2023-07-31T10:42:27;3.88;;;1.52;;
11539;SDS011;5826;54.756;9.192;2023-07-31T10:44:59;4.60;;;1.63;;
11539;SDS011;5826;54.756;9.192;2023-07-31T10:47:29;5.32;;;1.83;;
11539;SDS011;5826;54.756;9.192;2023-07-31T10:52:47;3.78;;;1.42;;
11539;SDS011;5826;54.756;9.192;2023-07-31T10:55:14;3.90;;;1.85;;
11539;SDS011;5826;54.756;9.192;2023-07-31T10:57:49;3.33;;;1.30;;
11539;SDS011;5826;54.756;9.192;2023-07-31T11:00:19;2.00;;;1.10;;
11539;SDS011;5826;54.756;9.192;2023-07-31T11:13:34;3.63;;;1.48;;
11539;SDS011;5826;54.756;9.192;2023-07-31T11:16:14;2.97;;;1.50;;
11539;SDS011;5826;54.756;9.192;2023-07-31T11:18:41;3.15;;;1.40;;
11539;SDS011;5826;54.756;9.192;2023-07-31T11:21:14;2.80;;;1.50;;
11539;SDS011;5826;54.756;9.192;2023-07-31T11:23:45;2.80;;;1.40;;
11539;SDS011;5826;54.756;9.192;2023-07-31T11:26:12;2.83;;;1.70;;
11539;SDS011;5826;54.756;9.192;2023-07-31T11:28:37;3.25;;;1.60;;
11539;SDS011;5826;54.756;9.192;2023-07-31T11:31:03;1.85;;;1.50;;
11539;SDS011;5826;54.756;9.192;2023-07-31T11:33:29;2.58;;;1.45;;
11539;SDS011;5826;54.756;9.192;2023-07-31T11:35:55;2.92;;;1.50;;
11539;SDS011;5826;54.756;9.192;2023-07-31T11:38:21;3.80;;;1.63;;
11539;SDS011;5826;54.756;9.192;2023-07-31T11:40:51;3.40;;;1.55;;
11539;SDS011;5826;54.756;9.192;2023-07-31T11:43:18;3.13;;;1.40;;
11539;SDS011;5826;54.756;9.192;2023-07-31T11:45:46;3.88;;;1.67;;
11539;SDS011;5826;54.756;9.192;2023-07-31T11:48:19;5.07;;;1.88;;
11539;SDS011;5826;54.756;9.192;2023-07-31T11:50:45;3.80;;;1.70;;
11539;SDS011;5826;54.756;9.192;2023-07-31T11:53:11;3.55;;;1.60;;
11539;SDS011;5826;54.756;9.192;2023-07-31T11:55:38;2.38;;;1.30;;
11539;SDS011;5826;54.756;9.192;2023-07-31T11:58:04;2.00;;;1.40;;
11539;SDS011;5826;54.756;9.192;2023-07-31T12:00:30;3.45;;;1.45;;
11539;SDS011;5826;54.756;9.192;2023-07-31T12:02:55;2.08;;;1.30;;
11539;SDS011;5826;54.756;9.192;2023-07-31T12:05:21;2.38;;;1.30;;
11539;SDS011;5826;54.756;9.192;2023-07-31T12:07:52;3.13;;;1.30;;
11539;SDS011;5826;54.756;9.192;2023-07-31T12:10:25;3.05;;;1.40;;
11539;SDS011;5826;54.756;9.192;2023-07-31T12:13:02;2.83;;;1.27;;
11539;SDS011;5826;54.756;9.192;2023-07-31T12:15:31;3.42;;;1.42;;
11539;SDS011;5826;54.756;9.192;2023-07-31T12:18:05;1.55;;;1.35;;
11539;SDS011;5826;54.756;9.192;2023-07-31T12:20:39;4.10;;;1.33;;
11539;SDS011;5826;54.756;9.192;2023-07-31T12:23:15;2.08;;;1.20;;
11539;SDS011;5826;54.756;9.192;2023-07-31T12:25:43;2.72;;;1.20;;
11539;SDS011;5826;54.756;9.192;2023-07-31T12:28:08;1.95;;;1.25;;
11539;SDS011;5826;54.756;9.192;2023-07-31T12:30:38;2.55;;;1.10;;
11539;SDS011;5826;54.756;9.192;2023-07-31T12:33:12;1.80;;;1.00;;
11539;SDS011;5826;54.756;9.192;2023-07-31T12:35:41;1.60;;;1.10;;
11539;SDS011;5826;54.756;9.192;2023-07-31T12:38:10;2.22;;;1.17;;
11539;SDS011;5826;54.756;9.192;2023-07-31T12:40:37;2.15;;;1.13;;
11539;SDS011;5826;54.756;9.192;2023-07-31T12:43:04;2.13;;;1.20;;
11539;SDS011;5826;54.756;9.192;2023-07-31T12:45:30;1.27;;;1.10;;
11539;SDS011;5826;54.756;9.192;2023-07-31T12:47:56;1.50;;;1.00;;
11539;SDS011;5826;54.756;9.192;2023-07-31T12:50:23;1.10;;;1.00;;
11539;SDS011;5826;54.756;9.192;2023-07-31T12:52:48;1.48;;;1.02;;
11539;SDS011;5826;54.756;9.192;2023-07-31T12:55:14;1.30;;;1.00;;
11539;SDS011;5826;54.756;9.192;2023-07-31T12:57:40;1.73;;;0.98;;
11539;SDS011;5826;54.756;9.192;2023-07-31T13:00:07;1.50;;;1.10;;
11539;SDS011;5826;54.756;9.192;2023-07-31T13:02:33;1.90;;;1.00;;
11539;SDS011;5826;54.756;9.192;2023-07-31T13:04:58;2.53;;;1.05;;
11539;SDS011;5826;54.756;9.192;2023-07-31T13:07:24;1.70;;;1.00;;
11539;SDS011;5826;54.756;9.192;2023-07-31T13:09:50;2.90;;;1.25;;
11539;SDS011;5826;54.756;9.192;2023-07-31T13:12:17;2.10;;;1.10;;
11539;SDS011;5826;54.756;9.192;2023-07-31T13:14:42;1.20;;;1.10;;
11539;SDS011;5826;54.756;9.192;2023-07-31T13:17:08;1.58;;;1.08;;
11539;SDS011;5826;54.756;9.192;2023-07-31T13:19:34;1.75;;;1.10;;
11539;SDS011;5826;54.756;9.192;2023-07-31T13:21:59;1.30;;;1.00;;
11539;SDS011;5826;54.756;9.192;2023-07-31T13:24:25;1.42;;;1.00;;
11539;SDS011;5826;54.756;9.192;2023-07-31T13:26:50;1.23;;;1.02;;
11539;SDS011;5826;54.756;9.192;2023-07-31T13:29:16;1.25;;;0.90;;
11539;SDS011;5826;54.756;9.192;2023-07-31T13:31:41;1.17;;;1.00;;
11539;SDS011;5826;54.756;9.192;2023-07-31T13:34:07;2.30;;;1.00;;
11539;SDS011;5826;54.756;9.192;2023-07-31T13:36:32;1.83;;;1.23;;
11539;SDS011;5826;54.756;9.192;2023-07-31T13:38:59;2.10;;;1.15;;
11539;SDS011;5826;54.756;9.192;2023-07-31T13:41:24;1.27;;;1.00;;
11539;SDS011;5826;54.756;9.192;2023-07-31T13:43:50;1.55;;;1.15;;
11539;SDS011;5826;54.756;9.192;2023-07-31T13:46:16;1.25;;;1.10;;
11539;SDS011;5826;54.756;9.192;2023-07-31T13:48:41;1.33;;;1.00;;
11539;SDS011;5826;54.756;9.192;2023-07-31T13:51:07;1.48;;;1.15;;
11539;SDS011;5826;54.756;9.192;2023-07-31T13:53:32;1.40;;;1.17;;
11539;SDS011;5826;54.756;9.192;2023-07-31T13:55:57;1.25;;;1.00;;
11539;SDS011;5826;54.756;9.192;2023-07-31T13:58:23;2.53;;;1.30;;
11539;SDS011;5826;54.756;9.192;2023-07-31T14:00:48;1.23;;;1.10;;
11539;SDS011;5826;54.756;9.192;2023-07-31T14:03:14;2.35;;;1.30;;
11539;SDS011;5826;54.756;9.192;2023-07-31T14:05:39;1.75;;;1.02;;
11539;SDS011;5826;54.756;9.192;2023-07-31T14:08:05;1.73;;;1.20;;
11539;SDS011;5826;54.756;9.192;2023-07-31T14:10:31;0.98;;;0.90;;
11539;SDS011;5826;54.756;9.192;2023-07-31T14:12:56;1.58;;;1.08;;
11539;SDS011;5826;54.756;9.192;2023-07-31T14:15:21;2.00;;;1.23;;
11539;SDS011;5826;54.756;9.192;2023-07-31T14:17:47;1.27;;;0.90;;
11539;SDS011;5826;54.756;9.192;2023-07-31T14:20:12;1.10;;;1.00;;
11539;SDS011;5826;54.756;9.192;2023-07-31T14:22:38;1.33;;;1.02;;
11539;SDS011;5826;54.756;9.192;2023-07-31T14:25:04;1.80;;;1.10;;
11539;SDS011;5826;54.756;9.192;2023-07-31T14:27:30;2.30;;;1.20;;
11539;SDS011;5826;54.756;9.192;2023-07-31T14:29:55;1.33;;;1.10;;
11539;SDS011;5826;54.756;9.192;2023-07-31T14:32:21;1.48;;;1.10;;
11539;SDS011;5826;54.756;9.192;2023-07-31T14:34:48;1.00;;;0.90;;
11539;SDS011;5826;54.756;9.192;2023-07-31T14:37:14;1.80;;;1.35;;
11539;SDS011;5826;54.756;9.192;2023-07-31T14:39:39;1.05;;;0.95;;
11539;SDS011;5826;54.756;9.192;2023-07-31T14:42:05;1.85;;;1.10;;
11539;SDS011;5826;54.756;9.192;2023-07-31T14:44:30;1.75;;;1.17;;
11539;SDS011;5826;54.756;9.192;2023-07-31T14:46:56;1.98;;;1.10;;
11539;SDS011;5826;54.756;9.192;2023-07-31T14:49:21;1.45;;;0.88;;
11539;SDS011;5826;54.756;9.192;2023-07-31T14:51:47;1.00;;;0.90;;
11539;SDS011;5826;54.756;9.192;2023-07-31T14:54:12;1.38;;;0.90;;
11539;SDS011;5826;54.756;9.192;2023-07-31T14:56:38;1.38;;;1.05;;
11539;SDS011;5826;54.756;9.192;2023-07-31T14:59:03;1.02;;;0.93;;
11539;SDS011;5826;54.756;9.192;2023-07-31T15:01:29;1.90;;;1.10;;
11539;SDS011;5826;54.756;9.192;2023-07-31T15:03:54;1.67;;;1.00;;
11539;SDS011;5826;54.756;9.192;2023-07-31T15:06:20;1.17;;;0.82;;
11539;SDS011;5826;54.756;9.192;2023-07-31T15:08:45;0.80;;;0.80;;
11539;SDS011;5826;54.756;9.192;2023-07-31T15:11:10;1.48;;;0.70;;
11539;SDS011;5826;54.756;9.192;2023-07-31T15:13:36;0.80;;;0.80;;
11539;SDS011;5826;54.756;9.192;2023-07-31T15:16:02;1.00;;;0.90;;